createdAt,value
2022-12-05T00:04:00.235Z,7.22
2022-12-05T00:06:29.156Z,7.90
2022-12-05T00:08:56.731Z,7.25
2022-12-05T00:11:27.380Z,7.18
2022-12-05T00:13:56.292Z,7.50
2022-12-05T00:16:25.615Z,7.43
2022-12-05T00:21:25.734Z,7.38
2022-12-05T00:23:54.206Z,7.25
2022-12-05T00:26:21.907Z,7.65
2022-12-05T00:28:49.889Z,7.68
2022-12-05T00:31:20.476Z,7.40
2022-12-05T00:33:48.063Z,8.50
2022-12-05T00:36:19.656Z,6.40
2022-12-05T00:38:47.246Z,7.30
2022-12-05T00:41:17.451Z,7.28
2022-12-05T00:43:45.097Z,8.68
2022-12-05T00:46:15.277Z,8.55
2022-12-05T00:48:43.046Z,8.63
2022-12-05T00:51:19.007Z,8.02
2022-12-05T00:53:47.292Z,8.02
2022-12-05T00:56:20.920Z,8.18
2022-12-05T00:58:48.994Z,9.00
2022-12-05T01:01:19.633Z,7.68
2022-12-05T01:03:48.017Z,7.47
2022-12-05T01:06:16.804Z,8.32
2022-12-05T01:08:44.194Z,8.30
2022-12-05T01:11:14.569Z,7.15
2022-12-05T01:13:41.927Z,7.97
2022-12-05T01:16:18.389Z,7.32
2022-12-05T01:18:45.467Z,7.90
2022-12-05T01:21:12.791Z,7.95
2022-12-05T01:23:40.131Z,8.38
2022-12-05T01:26:09.145Z,8.13
2022-12-05T01:28:36.755Z,8.00
2022-12-05T01:31:10.307Z,8.07
2022-12-05T01:33:37.351Z,8.52
2022-12-05T01:36:04.409Z,8.80
2022-12-05T01:38:31.412Z,8.60
2022-12-05T01:41:03.319Z,8.35
2022-12-05T01:43:31.193Z,8.13
2022-12-05T01:45:58.398Z,8.15
2022-12-05T01:48:36.265Z,8.40
2022-12-05T01:51:03.443Z,7.78
2022-12-05T01:53:30.734Z,8.20
2022-12-05T01:55:58.057Z,7.97
2022-12-05T01:58:31.331Z,8.32
2022-12-05T02:00:58.670Z,8.35
2022-12-05T02:03:25.666Z,8.25
2022-12-05T02:05:56.702Z,9.68
2022-12-05T02:08:24.061Z,9.02
2022-12-05T02:10:55.557Z,8.63
2022-12-05T02:13:47.906Z,8.68
2022-12-05T02:16:33.980Z,8.63
2022-12-05T02:19:22.901Z,8.43
2022-12-05T02:22:05.051Z,8.90
2022-12-05T02:25:14.103Z,9.73
2022-12-05T02:28:21.425Z,11.48
2022-12-05T02:30:57.780Z,11.02
2022-12-05T02:33:41.492Z,8.10
2022-12-05T02:36:31.548Z,8.98
2022-12-05T02:39:08.029Z,8.27
2022-12-05T02:41:40.516Z,8.60
2022-12-05T02:44:17.704Z,8.48
2022-12-05T02:46:48.577Z,8.32
2022-12-05T02:49:22.184Z,8.32
2022-12-05T02:51:55.310Z,8.15
2022-12-05T02:54:27.582Z,7.32
2022-12-05T02:56:57.661Z,7.38
2022-12-05T02:59:24.627Z,7.78
2022-12-05T03:01:51.846Z,7.80
2022-12-05T03:04:22.156Z,7.60
2022-12-05T03:06:53.997Z,7.55
2022-12-05T03:09:36.110Z,7.80
2022-12-05T03:12:07.328Z,7.97
2022-12-05T03:14:41.729Z,8.23
2022-12-05T03:17:13.466Z,7.25
2022-12-05T03:20:07.272Z,7.68
2022-12-05T03:23:09.238Z,7.88
2022-12-05T03:25:48.272Z,7.32
2022-12-05T03:28:29.482Z,7.50
2022-12-05T03:31:03.796Z,9.43
2022-12-05T03:33:39.273Z,8.35
2022-12-05T03:36:16.055Z,8.93
2022-12-05T03:38:52.346Z,8.65
2022-12-05T03:41:40.821Z,9.63
2022-12-05T03:44:18.189Z,8.43
2022-12-05T03:46:53.957Z,8.65
2022-12-05T03:49:48.535Z,9.48
2022-12-05T03:52:19.670Z,9.20
2022-12-05T03:54:51.598Z,9.32
2022-12-05T03:57:23.350Z,9.75
2022-12-05T04:00:10.158Z,8.73
2022-12-05T04:02:46.339Z,8.68
2022-12-05T04:05:36.453Z,8.77
2022-12-05T04:08:08.740Z,9.93
2022-12-05T04:10:48.837Z,9.10
2022-12-05T04:13:34.642Z,8.80
2022-12-05T04:16:25.980Z,8.55
2022-12-05T04:19:05.356Z,8.30
2022-12-05T04:24:31.475Z,8.98
2022-12-05T04:27:10.847Z,8.85
2022-12-05T04:32:13.933Z,9.10
2022-12-05T04:34:43.610Z,9.75
2022-12-05T04:37:19.886Z,9.75
2022-12-05T04:40:12.837Z,9.45
2022-12-05T04:42:42.962Z,9.38
2022-12-05T04:45:14.934Z,9.73
2022-12-05T04:47:47.205Z,9.05
2022-12-05T04:50:16.600Z,9.50
2022-12-05T04:52:49.122Z,8.50
2022-12-05T04:55:25.870Z,9.00
2022-12-05T04:58:14.678Z,8.75
2022-12-05T05:00:56.265Z,9.52
2022-12-05T05:03:32.374Z,8.30
2022-12-05T05:05:59.655Z,9.18
2022-12-05T05:08:29.368Z,9.88
2022-12-05T05:11:19.037Z,9.63
2022-12-05T05:13:46.442Z,8.85
2022-12-05T05:16:18.304Z,8.55
2022-12-05T05:18:46.779Z,8.88
2022-12-05T05:21:18.046Z,8.60
2022-12-05T05:23:45.126Z,8.68
2022-12-05T05:26:13.060Z,9.43
2022-12-05T05:28:40.016Z,8.32
2022-12-05T05:31:07.941Z,9.43
2022-12-05T05:33:35.974Z,8.32
2022-12-05T05:36:09.001Z,7.90
2022-12-05T05:38:44.421Z,8.05
2022-12-05T05:41:19.892Z,8.73
2022-12-05T05:43:47.805Z,8.20
2022-12-05T05:46:18.712Z,8.02
2022-12-05T05:48:47.128Z,8.60
2022-12-05T05:51:16.307Z,8.18
2022-12-05T05:53:43.696Z,7.97
2022-12-05T05:56:21.159Z,9.13
2022-12-05T05:58:55.117Z,9.30
2022-12-05T06:01:22.661Z,9.20
2022-12-05T06:03:51.081Z,8.40
2022-12-05T06:06:19.844Z,8.90
2022-12-05T06:08:47.980Z,8.93
2022-12-05T06:11:25.897Z,8.23
2022-12-05T06:13:56.211Z,9.17
2022-12-05T06:16:23.920Z,10.05
2022-12-05T06:18:52.313Z,9.30
2022-12-05T06:21:20.187Z,9.02
2022-12-05T06:23:47.497Z,9.68
2022-12-05T06:26:20.239Z,9.13
2022-12-05T06:28:47.373Z,9.63
2022-12-05T06:31:19.864Z,8.98
2022-12-05T06:33:47.717Z,9.18
2022-12-05T06:36:20.862Z,9.65
2022-12-05T06:38:49.367Z,7.95
2022-12-05T06:41:19.377Z,9.75
2022-12-05T06:43:47.008Z,9.70
2022-12-05T06:46:14.656Z,8.70
2022-12-05T06:48:41.961Z,8.95
2022-12-05T06:51:13.880Z,9.23
2022-12-05T06:53:41.724Z,9.38
2022-12-05T06:56:12.119Z,8.32
2022-12-05T06:58:47.117Z,9.30
2022-12-05T07:01:38.076Z,8.48
2022-12-05T07:04:14.199Z,9.25
2022-12-05T07:06:48.718Z,9.55
2022-12-05T07:09:20.807Z,9.02
2022-12-05T07:11:51.352Z,9.05
2022-12-05T07:14:45.912Z,10.50
2022-12-05T07:17:06.108Z,9.10
2022-12-05T07:19:33.238Z,12.77
2022-12-05T07:22:00.241Z,8.98
2022-12-05T07:24:27.626Z,8.73
2022-12-05T07:26:54.765Z,8.88
2022-12-05T07:29:22.593Z,9.55
2022-12-05T07:31:49.634Z,8.70
2022-12-05T07:34:16.754Z,8.95
2022-12-05T07:36:44.226Z,10.15
2022-12-05T07:39:11.370Z,9.50
2022-12-05T07:41:38.362Z,9.32
2022-12-05T07:44:11.466Z,8.75
2022-12-05T07:46:39.239Z,8.00
2022-12-05T07:49:06.984Z,9.40
2022-12-05T07:51:35.585Z,8.40
2022-12-05T07:54:02.962Z,8.07
2022-12-05T07:56:30.341Z,8.57
2022-12-05T07:58:57.699Z,13.48
2022-12-05T08:01:28.378Z,9.57
2022-12-05T08:03:58.704Z,9.60
2022-12-05T08:06:33.801Z,8.70
2022-12-05T08:09:01.063Z,9.90
2022-12-05T08:11:30.996Z,9.88
2022-12-05T08:13:58.597Z,11.10
2022-12-05T08:16:28.772Z,9.75
2022-12-05T08:19:07.945Z,9.43
2022-12-05T08:21:35.684Z,10.40
2022-12-05T08:24:05.543Z,10.20
2022-12-05T08:26:34.795Z,9.38
2022-12-05T08:31:32.764Z,8.83
2022-12-05T08:34:00.759Z,7.72
2022-12-05T08:36:29.595Z,7.57
2022-12-05T08:39:05.025Z,8.02
2022-12-05T08:41:32.959Z,7.15
2022-12-05T08:44:10.394Z,7.30
2022-12-05T08:46:39.093Z,7.50
2022-12-05T08:49:06.724Z,7.57
2022-12-05T08:51:34.176Z,7.15
2022-12-05T08:54:05.731Z,6.75
2022-12-05T08:56:33.167Z,7.53
2022-12-05T08:59:05.712Z,6.90
2022-12-05T09:01:37.304Z,7.15
2022-12-05T09:04:06.299Z,6.35
2022-12-05T09:06:34.666Z,7.07
2022-12-05T09:09:05.476Z,6.00
2022-12-05T09:11:35.724Z,6.15
2022-12-05T09:14:03.309Z,6.22
2022-12-05T09:16:37.587Z,7.20
2022-12-05T09:19:15.742Z,5.50
2022-12-05T09:21:43.923Z,4.65
2022-12-05T09:24:13.030Z,5.55
2022-12-05T09:26:41.186Z,5.55
2022-12-05T09:29:15.518Z,5.43
2022-12-05T09:31:44.229Z,6.57
2022-12-05T09:34:12.539Z,6.05
2022-12-05T09:36:39.636Z,4.70
2022-12-05T09:39:08.316Z,5.18
2022-12-05T09:42:08.934Z,4.95
2022-12-05T09:45:00.403Z,4.38
2022-12-05T09:47:36.969Z,4.28
2022-12-05T09:50:26.625Z,4.88
2022-12-05T09:52:59.169Z,4.63
2022-12-05T09:55:34.468Z,5.82
2022-12-05T09:58:04.089Z,5.65
2022-12-05T10:00:33.433Z,5.50
2022-12-05T10:05:43.802Z,4.38
2022-12-05T10:08:22.367Z,5.43
2022-12-05T10:11:28.280Z,5.97
2022-12-05T10:14:15.664Z,6.57
2022-12-05T10:16:53.710Z,6.43
2022-12-05T10:19:24.275Z,6.68
2022-12-05T10:22:03.626Z,6.97
2022-12-05T10:24:44.256Z,7.88
2022-12-05T10:27:20.334Z,6.30
2022-12-05T10:30:15.236Z,6.13
2022-12-05T10:32:55.993Z,5.70
2022-12-05T10:35:40.461Z,6.35
2022-12-05T10:38:21.595Z,6.50
2022-12-05T10:40:54.492Z,5.55
2022-12-05T10:43:28.535Z,5.60
2022-12-05T10:45:57.523Z,6.22
2022-12-05T10:48:25.557Z,6.25
2022-12-05T10:50:55.649Z,6.65
2022-12-05T10:53:38.494Z,5.70
2022-12-05T10:56:43.860Z,5.97
2022-12-05T10:59:17.732Z,6.03
2022-12-05T11:01:55.167Z,6.03
2022-12-05T11:04:54.289Z,6.70
2022-12-05T11:07:24.469Z,6.40
2022-12-05T11:09:52.415Z,6.95
2022-12-05T11:12:20.554Z,7.47
2022-12-05T11:15:19.518Z,6.22
2022-12-05T11:17:47.117Z,6.80
2022-12-05T11:20:20.237Z,7.30
2022-12-05T11:22:49.757Z,9.43
2022-12-05T11:25:35.479Z,7.25
2022-12-05T11:28:17.876Z,6.95
2022-12-05T11:31:10.665Z,7.18
2022-12-05T11:33:39.145Z,6.38
2022-12-05T11:36:14.678Z,6.80
2022-12-05T11:38:42.061Z,6.20
2022-12-05T11:41:27.474Z,6.55
2022-12-05T11:44:28.690Z,6.70
2022-12-05T11:47:26.025Z,6.82
2022-12-05T11:50:15.744Z,7.88
2022-12-05T11:53:02.242Z,8.23
2022-12-05T11:55:44.097Z,7.55
2022-12-05T11:58:42.093Z,6.80
2022-12-05T12:01:25.116Z,7.20
2022-12-05T12:04:19.978Z,7.10
2022-12-05T12:06:47.138Z,7.78
2022-12-05T12:09:28.089Z,7.93
2022-12-05T12:12:05.823Z,7.40
2022-12-05T12:14:41.837Z,8.52
2022-12-05T12:17:29.326Z,8.02
2022-12-05T12:20:14.720Z,8.60
2022-12-05T12:22:55.221Z,8.55
2022-12-05T12:26:04.418Z,9.25
2022-12-05T12:28:37.483Z,9.38
2022-12-05T12:31:29.272Z,9.95
2022-12-05T12:34:14.762Z,9.88
2022-12-05T12:37:00.087Z,9.98
2022-12-05T12:40:21.387Z,9.57
2022-12-05T12:43:44.826Z,10.82
2022-12-05T12:46:39.378Z,10.10
2022-12-05T12:49:40.658Z,10.75
2022-12-05T12:52:16.182Z,10.35
2022-12-05T12:55:04.050Z,11.50
2022-12-05T12:57:58.335Z,10.05
2022-12-05T13:00:34.112Z,10.65
2022-12-05T13:03:22.821Z,11.02
2022-12-05T13:06:07.353Z,10.90
2022-12-05T13:08:41.955Z,11.32
2022-12-05T13:11:12.869Z,12.30
2022-12-05T13:14:01.144Z,11.00
2022-12-05T13:16:42.579Z,10.85
2022-12-05T13:19:24.750Z,10.98
2022-12-05T13:21:53.233Z,10.27
2022-12-05T13:24:25.923Z,11.60
2022-12-05T13:26:53.617Z,11.43
2022-12-05T13:29:49.126Z,11.57
2022-12-05T13:32:41.554Z,10.55
2022-12-05T13:35:50.666Z,12.32
2022-12-05T13:38:52.961Z,11.88
2022-12-05T13:41:38.705Z,12.10
2022-12-05T13:44:12.412Z,12.57
2022-12-05T13:46:42.953Z,12.18
2022-12-05T13:49:26.145Z,12.63
2022-12-05T13:51:54.029Z,12.93
2022-12-05T13:54:28.320Z,11.15
2022-12-05T13:57:02.085Z,11.82
2022-12-05T14:00:07.340Z,11.90
2022-12-05T14:02:43.812Z,11.68
2022-12-05T14:05:13.945Z,12.45
2022-12-05T14:08:03.398Z,12.18
2022-12-05T14:10:32.198Z,13.20
2022-12-05T14:13:19.423Z,12.85
2022-12-05T14:15:48.179Z,12.75
2022-12-05T14:18:47.357Z,12.32
2022-12-05T14:23:52.063Z,11.85
2022-12-05T14:26:32.393Z,13.35
2022-12-05T14:29:36.977Z,12.20
2022-12-05T14:32:38.595Z,12.40
2022-12-05T14:35:14.935Z,12.57
2022-12-05T14:37:51.606Z,14.57
2022-12-05T14:40:27.946Z,14.27
2022-12-05T14:43:00.720Z,13.05
2022-12-05T14:45:39.288Z,12.85
2022-12-05T14:48:31.593Z,14.63
2022-12-05T14:51:04.255Z,14.07
2022-12-05T14:53:43.797Z,12.10
2022-12-05T14:58:57.080Z,13.68
2022-12-05T15:01:48.981Z,15.05
2022-12-05T15:04:43.709Z,13.30
2022-12-05T15:07:32.805Z,12.57
2022-12-05T15:10:26.134Z,13.63
2022-12-05T15:13:17.897Z,13.77
2022-12-05T15:16:02.896Z,12.15
2022-12-05T15:18:39.423Z,12.93
2022-12-05T15:21:24.893Z,13.15
2022-12-05T15:23:59.510Z,13.02
2022-12-05T15:29:20.677Z,13.15
2022-12-05T15:32:06.215Z,13.35
2022-12-05T15:34:53.163Z,13.23
2022-12-05T15:37:29.709Z,12.90
2022-12-05T15:40:14.934Z,11.77
2022-12-05T15:42:45.936Z,14.40
2022-12-05T15:45:16.028Z,13.20
2022-12-05T15:47:48.813Z,13.02
2022-12-05T15:50:17.238Z,12.45
2022-12-05T15:52:53.976Z,14.27
2022-12-05T15:55:35.084Z,14.88
2022-12-05T15:58:22.046Z,15.35
2022-12-05T16:01:12.730Z,13.57
2022-12-05T16:03:47.554Z,14.07
2022-12-05T16:06:29.969Z,14.10
2022-12-05T16:08:59.171Z,14.18
2022-12-05T16:11:27.193Z,15.07
2022-12-05T16:14:01.362Z,16.52
2022-12-05T16:16:33.322Z,14.43
2022-12-05T16:19:24.110Z,15.80
2022-12-05T16:22:20.685Z,14.25
2022-12-05T16:25:02.346Z,14.57
2022-12-05T16:27:39.532Z,14.05
2022-12-05T16:30:27.909Z,14.40
2022-12-05T16:33:04.077Z,14.45
2022-12-05T16:35:34.035Z,15.18
2022-12-05T16:38:18.014Z,14.20
2022-12-05T16:40:55.903Z,13.32
2022-12-05T16:43:23.066Z,13.75
2022-12-05T16:45:51.738Z,12.95
2022-12-05T16:48:22.771Z,13.95
2022-12-05T16:50:52.505Z,12.80
2022-12-05T16:53:27.645Z,13.27
2022-12-05T16:55:55.697Z,12.57
2022-12-05T16:58:25.831Z,13.20
2022-12-05T17:01:00.549Z,11.68
2022-12-05T17:03:36.275Z,11.43
2022-12-05T17:06:04.211Z,11.55
2022-12-05T17:08:31.266Z,12.43
2022-12-05T17:10:59.041Z,11.45
2022-12-05T17:13:26.431Z,12.15
2022-12-05T17:15:53.588Z,12.32
2022-12-05T17:18:26.532Z,13.68
2022-12-05T17:20:57.979Z,13.40
2022-12-05T17:23:25.433Z,13.50
2022-12-05T17:25:55.421Z,12.32
2022-12-05T17:28:23.169Z,13.93
2022-12-05T17:30:50.582Z,13.98
2022-12-05T17:33:19.237Z,12.82
2022-12-05T17:35:47.176Z,13.57
2022-12-05T17:38:14.439Z,13.75
2022-12-05T17:40:45.333Z,13.93
2022-12-05T17:43:19.961Z,13.00
2022-12-05T17:45:51.255Z,14.18
2022-12-05T17:48:19.195Z,16.25
2022-12-05T17:50:48.984Z,16.25
2022-12-05T17:53:19.044Z,14.50
2022-12-05T17:55:48.741Z,14.93
2022-12-05T17:58:16.835Z,15.18
2022-12-05T18:00:46.912Z,14.65
2022-12-05T18:03:17.329Z,13.85
2022-12-05T18:05:46.298Z,15.18
2022-12-05T18:08:14.424Z,15.43
2022-12-05T18:10:43.791Z,16.23
2022-12-05T18:13:11.365Z,14.27
2022-12-05T18:15:43.015Z,14.45
2022-12-05T18:18:15.527Z,14.48
2022-12-05T18:20:43.002Z,13.32
2022-12-05T18:23:10.835Z,14.65
2022-12-05T18:25:40.330Z,67.85
2022-12-05T18:28:07.533Z,49.42
2022-12-05T18:30:34.615Z,22.27
2022-12-05T18:33:03.101Z,16.25
2022-12-05T18:35:42.648Z,29.90
2022-12-05T18:38:13.192Z,14.38
2022-12-05T18:40:41.390Z,13.48
2022-12-05T18:43:08.392Z,14.20
2022-12-05T18:45:35.702Z,16.33
2022-12-05T18:48:23.360Z,15.73
2022-12-05T18:50:49.898Z,15.77
2022-12-05T18:53:17.893Z,16.50
2022-12-05T18:56:05.411Z,15.32
2022-12-05T18:58:33.195Z,15.23
2022-12-05T19:01:15.380Z,14.15
2022-12-05T19:03:42.621Z,15.15
2022-12-05T19:06:15.927Z,14.98
2022-12-05T19:08:44.703Z,14.50
2022-12-05T19:11:15.061Z,13.20
2022-12-05T19:13:42.699Z,12.07
2022-12-05T19:16:17.163Z,11.73
2022-12-05T19:18:45.805Z,11.85
2022-12-05T19:21:14.377Z,11.38
2022-12-05T19:23:41.673Z,11.13
2022-12-05T19:26:10.241Z,10.70
2022-12-05T19:28:38.792Z,10.80
2022-12-05T19:31:16.580Z,11.70
2022-12-05T19:33:46.171Z,12.32
2022-12-05T19:36:16.961Z,10.45
2022-12-05T19:38:46.214Z,12.27
2022-12-05T19:41:15.279Z,11.90
2022-12-05T19:43:43.786Z,11.48
2022-12-05T19:46:20.053Z,12.57
2022-12-05T19:48:47.879Z,11.52
2022-12-05T19:51:15.178Z,11.73
2022-12-05T19:53:44.052Z,12.60
2022-12-05T19:56:20.000Z,12.60
2022-12-05T19:58:48.505Z,12.73
2022-12-05T20:01:18.381Z,11.93
2022-12-05T20:03:52.398Z,11.88
2022-12-05T20:06:20.803Z,11.80
2022-12-05T20:08:51.226Z,12.85
2022-12-05T20:11:21.654Z,12.60
2022-12-05T20:13:48.772Z,11.75
2022-12-05T20:16:19.068Z,10.90
2022-12-05T20:18:46.557Z,10.57
2022-12-05T20:21:19.101Z,12.32
2022-12-05T20:23:46.668Z,12.45
2022-12-05T20:26:16.383Z,12.80
2022-12-05T20:28:44.524Z,14.10
2022-12-05T20:31:11.418Z,12.15
2022-12-05T20:33:39.429Z,11.98
2022-12-05T20:36:09.411Z,11.52
2022-12-05T20:38:37.206Z,11.13
2022-12-05T20:41:07.672Z,10.70
2022-12-05T20:43:35.193Z,12.18
2022-12-05T20:46:09.104Z,13.00
2022-12-05T20:48:36.341Z,11.00
2022-12-05T20:53:38.704Z,10.00
2022-12-05T20:56:08.001Z,10.48
2022-12-05T20:58:39.819Z,9.02
2022-12-05T21:01:09.618Z,9.88
2022-12-05T21:03:39.295Z,10.25
2022-12-05T21:06:11.302Z,14.57
2022-12-05T21:08:38.746Z,10.23
2022-12-05T21:11:07.111Z,10.85
2022-12-05T21:13:35.112Z,9.97
2022-12-05T21:16:04.262Z,11.85
2022-12-05T21:21:00.318Z,12.52
2022-12-05T21:23:27.576Z,14.50
2022-12-05T21:25:56.041Z,12.67
2022-12-05T21:28:23.181Z,11.15
2022-12-05T21:30:50.328Z,11.07
2022-12-05T21:33:17.469Z,11.07
2022-12-05T21:35:53.997Z,18.35
2022-12-05T21:38:20.947Z,13.68
2022-12-05T21:40:48.352Z,10.75
2022-12-05T21:43:16.895Z,10.38
2022-12-05T21:45:47.719Z,9.77
2022-12-05T21:48:18.979Z,8.32
2022-12-05T21:50:46.022Z,9.10
2022-12-05T21:53:13.508Z,8.43
2022-12-05T21:55:41.704Z,8.02
2022-12-05T21:58:10.197Z,7.85
2022-12-05T22:00:38.376Z,8.90
2022-12-05T22:03:06.280Z,8.82
2022-12-05T22:05:33.585Z,8.40
2022-12-05T22:08:04.819Z,7.90
2022-12-05T22:10:36.825Z,8.27
2022-12-05T22:13:05.118Z,7.28
2022-12-05T22:15:32.102Z,6.95
2022-12-05T22:18:17.896Z,7.70
2022-12-05T22:20:44.984Z,7.13
2022-12-05T22:23:16.643Z,13.35
2022-12-05T22:25:44.052Z,19.70
2022-12-05T22:28:11.069Z,9.13
2022-12-05T22:30:38.261Z,6.93
2022-12-05T22:33:05.339Z,6.95
2022-12-05T22:35:34.914Z,7.47
2022-12-05T22:38:01.874Z,6.65
2022-12-05T22:40:28.997Z,7.63
2022-12-05T22:42:55.897Z,7.18
2022-12-05T22:45:22.869Z,7.30
2022-12-05T22:47:49.768Z,7.05
2022-12-05T22:50:16.950Z,7.13
2022-12-05T22:52:43.858Z,7.93
2022-12-05T22:55:11.132Z,8.00
2022-12-05T22:57:38.049Z,8.40
2022-12-05T23:00:07.251Z,7.47
2022-12-05T23:02:34.336Z,7.53
2022-12-05T23:05:01.310Z,8.07
2022-12-05T23:07:30.375Z,8.48
2022-12-05T23:09:58.135Z,8.07
2022-12-05T23:12:25.520Z,7.85
2022-12-05T23:14:52.673Z,7.55
2022-12-05T23:17:19.804Z,8.40
2022-12-05T23:19:46.801Z,8.70
2022-12-05T23:22:13.948Z,7.80
2022-12-05T23:24:40.898Z,8.02
2022-12-05T23:27:07.988Z,7.60
2022-12-05T23:29:35.485Z,10.60
2022-12-05T23:32:03.782Z,12.43
2022-12-05T23:34:30.702Z,10.75
2022-12-05T23:36:57.671Z,8.60
2022-12-05T23:39:24.652Z,7.47
2022-12-05T23:41:51.872Z,7.53
2022-12-05T23:44:19.101Z,7.00
2022-12-05T23:46:46.121Z,7.20
2022-12-05T23:49:13.414Z,7.18
2022-12-05T23:51:40.675Z,7.10
2022-12-05T23:54:10.347Z,7.18
2022-12-05T23:59:06.706Z,7.53
